sensor_id;sensor_type;location;lat;lon;timestamp;P1;durP1;ratioP1;P2;durP2;ratioP2
49824;SDS011;35714;55.708;37.478;2023-01-16T00:00:52;14.43;;;6.32;;
49824;SDS011;35714;55.708;37.478;2023-01-16T00:03:18;23.05;;;7.45;;
49824;SDS011;35714;55.708;37.478;2023-01-16T00:05:44;18.67;;;8.93;;
49824;SDS011;35714;55.708;37.478;2023-01-16T00:08:10;14.85;;;7.60;;
49824;SDS011;35714;55.708;37.478;2023-01-16T00:10:36;22.25;;;8.23;;
49824;SDS011;35714;55.708;37.478;2023-01-16T00:13:02;22.48;;;7.88;;
49824;SDS011;35714;55.708;37.478;2023-01-16T00:15:27;20.85;;;7.55;;
49824;SDS011;35714;55.708;37.478;2023-01-16T00:17:53;16.50;;;6.03;;
49824;SDS011;35714;55.708;37.478;2023-01-16T00:20:19;16.83;;;7.38;;
49824;SDS011;35714;55.708;37.478;2023-01-16T00:22:45;13.65;;;6.07;;
49824;SDS011;35714;55.708;37.478;2023-01-16T00:25:10;14.38;;;5.63;;
49824;SDS011;35714;55.708;37.478;2023-01-16T00:27:36;16.33;;;6.35;;
49824;SDS011;35714;55.708;37.478;2023-01-16T00:30:03;18.50;;;6.80;;
49824;SDS011;35714;55.708;37.478;2023-01-16T00:32:30;18.00;;;6.10;;
49824;SDS011;35714;55.708;37.478;2023-01-16T00:34:55;23.52;;;9.70;;
49824;SDS011;35714;55.708;37.478;2023-01-16T00:37:21;18.15;;;5.50;;
49824;SDS011;35714;55.708;37.478;2023-01-16T00:39:47;23.80;;;7.68;;
49824;SDS011;35714;55.708;37.478;2023-01-16T00:42:13;24.00;;;8.30;;
49824;SDS011;35714;55.708;37.478;2023-01-16T00:44:40;22.98;;;6.50;;
49824;SDS011;35714;55.708;37.478;2023-01-16T00:47:06;20.42;;;7.32;;
49824;SDS011;35714;55.708;37.478;2023-01-16T00:49:32;21.73;;;8.38;;
49824;SDS011;35714;55.708;37.478;2023-01-16T00:51:57;20.73;;;7.68;;
49824;SDS011;35714;55.708;37.478;2023-01-16T00:54:23;16.48;;;7.05;;
49824;SDS011;35714;55.708;37.478;2023-01-16T00:56:49;18.48;;;7.72;;
49824;SDS011;35714;55.708;37.478;2023-01-16T00:59:14;21.80;;;7.22;;
49824;SDS011;35714;55.708;37.478;2023-01-16T01:01:40;15.57;;;7.05;;
49824;SDS011;35714;55.708;37.478;2023-01-16T01:04:06;13.35;;;5.95;;
49824;SDS011;35714;55.708;37.478;2023-01-16T01:06:32;21.95;;;6.63;;
49824;SDS011;35714;55.708;37.478;2023-01-16T01:08:58;21.08;;;6.88;;
49824;SDS011;35714;55.708;37.478;2023-01-16T01:11:24;21.33;;;7.25;;
49824;SDS011;35714;55.708;37.478;2023-01-16T01:13:50;18.42;;;6.53;;
49824;SDS011;35714;55.708;37.478;2023-01-16T01:16:16;11.02;;;5.15;;
49824;SDS011;35714;55.708;37.478;2023-01-16T01:18:42;14.50;;;7.22;;
49824;SDS011;35714;55.708;37.478;2023-01-16T01:21:08;15.82;;;6.15;;
49824;SDS011;35714;55.708;37.478;2023-01-16T01:23:34;20.45;;;6.93;;
49824;SDS011;35714;55.708;37.478;2023-01-16T01:26:08;10.13;;;5.47;;
49824;SDS011;35714;55.708;37.478;2023-01-16T01:28:35;22.97;;;7.83;;
49824;SDS011;35714;55.708;37.478;2023-01-16T01:31:02;16.70;;;6.10;;
49824;SDS011;35714;55.708;37.478;2023-01-16T01:33:32;12.70;;;5.25;;
49824;SDS011;35714;55.708;37.478;2023-01-16T01:35:58;15.13;;;6.65;;
49824;SDS011;35714;55.708;37.478;2023-01-16T01:38:23;10.80;;;5.60;;
49824;SDS011;35714;55.708;37.478;2023-01-16T01:40:49;18.45;;;6.80;;
49824;SDS011;35714;55.708;37.478;2023-01-16T01:43:15;21.08;;;7.45;;
49824;SDS011;35714;55.708;37.478;2023-01-16T01:45:43;13.73;;;5.10;;
49824;SDS011;35714;55.708;37.478;2023-01-16T01:53:46;19.98;;;6.15;;
49824;SDS011;35714;55.708;37.478;2023-01-16T01:56:20;20.77;;;6.07;;
49824;SDS011;35714;55.708;37.478;2023-01-16T01:58:55;20.30;;;6.05;;
49824;SDS011;35714;55.708;37.478;2023-01-16T02:01:24;19.08;;;6.22;;
49824;SDS011;35714;55.708;37.478;2023-01-16T02:03:57;21.08;;;6.82;;
49824;SDS011;35714;55.708;37.478;2023-01-16T02:06:27;13.65;;;5.47;;
49824;SDS011;35714;55.708;37.478;2023-01-16T02:08:57;18.90;;;6.10;;
49824;SDS011;35714;55.708;37.478;2023-01-16T02:11:25;14.15;;;5.18;;
49824;SDS011;35714;55.708;37.478;2023-01-16T02:13:58;14.07;;;6.50;;
49824;SDS011;35714;55.708;37.478;2023-01-16T02:16:27;17.33;;;6.40;;
49824;SDS011;35714;55.708;37.478;2023-01-16T02:19:17;16.48;;;7.78;;
49824;SDS011;35714;55.708;37.478;2023-01-16T02:33:50;29.55;;;6.55;;
49824;SDS011;35714;55.708;37.478;2023-01-16T02:36:43;20.05;;;6.65;;
49824;SDS011;35714;55.708;37.478;2023-01-16T02:47:29;21.27;;;7.35;;
49824;SDS011;35714;55.708;37.478;2023-01-16T02:52:52;23.40;;;6.78;;
49824;SDS011;35714;55.708;37.478;2023-01-16T02:55:41;19.40;;;7.03;;
49824;SDS011;35714;55.708;37.478;2023-01-16T02:58:13;15.60;;;4.90;;
49824;SDS011;35714;55.708;37.478;2023-01-16T03:00:54;16.95;;;6.88;;
49824;SDS011;35714;55.708;37.478;2023-01-16T03:03:38;18.40;;;6.35;;
49824;SDS011;35714;55.708;37.478;2023-01-16T03:17:28;22.63;;;8.15;;
49824;SDS011;35714;55.708;37.478;2023-01-16T03:20:11;19.30;;;5.47;;
49824;SDS011;35714;55.708;37.478;2023-01-16T03:22:44;18.48;;;7.15;;
49824;SDS011;35714;55.708;37.478;2023-01-16T03:33:29;26.83;;;8.65;;
49824;SDS011;35714;55.708;37.478;2023-01-16T03:36:08;18.48;;;6.07;;
49824;SDS011;35714;55.708;37.478;2023-01-16T03:38:56;18.02;;;5.38;;
49824;SDS011;35714;55.708;37.478;2023-01-16T03:41:24;20.83;;;6.45;;
49824;SDS011;35714;55.708;37.478;2023-01-16T03:43:55;15.45;;;5.80;;
49824;SDS011;35714;55.708;37.478;2023-01-16T03:46:29;30.20;;;7.68;;
49824;SDS011;35714;55.708;37.478;2023-01-16T03:49:08;15.50;;;5.50;;
49824;SDS011;35714;55.708;37.478;2023-01-16T03:51:41;17.83;;;5.28;;
49824;SDS011;35714;55.708;37.478;2023-01-16T03:54:15;17.70;;;6.30;;
49824;SDS011;35714;55.708;37.478;2023-01-16T03:57:11;18.52;;;6.53;;
49824;SDS011;35714;55.708;37.478;2023-01-16T03:59:40;22.13;;;5.72;;
49824;SDS011;35714;55.708;37.478;2023-01-16T04:05:29;16.95;;;6.65;;
49824;SDS011;35714;55.708;37.478;2023-01-16T04:08:00;25.48;;;7.07;;
49824;SDS011;35714;55.708;37.478;2023-01-16T04:10:31;21.08;;;6.07;;
49824;SDS011;35714;55.708;37.478;2023-01-16T04:13:10;25.95;;;6.35;;
49824;SDS011;35714;55.708;37.478;2023-01-16T04:15:41;18.17;;;6.28;;
49824;SDS011;35714;55.708;37.478;2023-01-16T04:18:11;12.63;;;4.43;;
49824;SDS011;35714;55.708;37.478;2023-01-16T04:20:37;25.38;;;7.18;;
49824;SDS011;35714;55.708;37.478;2023-01-16T04:23:05;20.20;;;6.95;;
49824;SDS011;35714;55.708;37.478;2023-01-16T04:25:30;12.75;;;5.97;;
49824;SDS011;35714;55.708;37.478;2023-01-16T04:37:51;14.68;;;4.07;;
49824;SDS011;35714;55.708;37.478;2023-01-16T04:40:17;11.02;;;4.95;;
49824;SDS011;35714;55.708;37.478;2023-01-16T04:42:42;16.60;;;5.40;;
49824;SDS011;35714;55.708;37.478;2023-01-16T04:45:08;17.13;;;5.88;;
49824;SDS011;35714;55.708;37.478;2023-01-16T04:47:34;20.45;;;5.55;;
49824;SDS011;35714;55.708;37.478;2023-01-16T04:50:00;16.70;;;6.00;;
49824;SDS011;35714;55.708;37.478;2023-01-16T04:52:26;20.52;;;6.78;;
49824;SDS011;35714;55.708;37.478;2023-01-16T04:54:52;15.25;;;5.15;;
49824;SDS011;35714;55.708;37.478;2023-01-16T04:57:17;19.88;;;6.30;;
49824;SDS011;35714;55.708;37.478;2023-01-16T04:59:43;15.98;;;5.97;;
49824;SDS011;35714;55.708;37.478;2023-01-16T05:02:09;17.15;;;6.30;;
49824;SDS011;35714;55.708;37.478;2023-01-16T05:04:35;20.92;;;6.30;;
49824;SDS011;35714;55.708;37.478;2023-01-16T05:07:00;20.20;;;7.22;;
49824;SDS011;35714;55.708;37.478;2023-01-16T05:09:26;23.13;;;5.88;;
49824;SDS011;35714;55.708;37.478;2023-01-16T05:11:52;20.48;;;7.43;;
49824;SDS011;35714;55.708;37.478;2023-01-16T05:14:17;11.98;;;5.13;;
49824;SDS011;35714;55.708;37.478;2023-01-16T05:16:43;15.63;;;5.18;;
49824;SDS011;35714;55.708;37.478;2023-01-16T05:19:10;15.57;;;5.25;;
49824;SDS011;35714;55.708;37.478;2023-01-16T05:21:36;14.73;;;4.93;;
49824;SDS011;35714;55.708;37.478;2023-01-16T05:24:02;13.77;;;5.75;;
49824;SDS011;35714;55.708;37.478;2023-01-16T05:26:28;18.38;;;6.75;;
49824;SDS011;35714;55.708;37.478;2023-01-16T05:28:54;17.08;;;6.47;;
49824;SDS011;35714;55.708;37.478;2023-01-16T05:31:20;20.05;;;5.50;;
49824;SDS011;35714;55.708;37.478;2023-01-16T05:33:46;19.73;;;5.97;;
49824;SDS011;35714;55.708;37.478;2023-01-16T05:36:11;16.80;;;5.10;;
49824;SDS011;35714;55.708;37.478;2023-01-16T05:38:37;17.48;;;5.28;;
49824;SDS011;35714;55.708;37.478;2023-01-16T05:41:03;17.27;;;4.43;;
49824;SDS011;35714;55.708;37.478;2023-01-16T05:43:28;21.45;;;5.47;;
49824;SDS011;35714;55.708;37.478;2023-01-16T05:45:54;16.08;;;6.07;;
49824;SDS011;35714;55.708;37.478;2023-01-16T05:48:20;22.63;;;5.72;;
49824;SDS011;35714;55.708;37.478;2023-01-16T05:50:45;17.67;;;5.45;;
49824;SDS011;35714;55.708;37.478;2023-01-16T05:53:11;18.98;;;6.15;;
49824;SDS011;35714;55.708;37.478;2023-01-16T05:55:41;13.85;;;5.45;;
49824;SDS011;35714;55.708;37.478;2023-01-16T05:58:09;17.63;;;5.78;;
49824;SDS011;35714;55.708;37.478;2023-01-16T06:00:36;16.70;;;5.75;;
49824;SDS011;35714;55.708;37.478;2023-01-16T06:03:02;23.20;;;5.90;;
49824;SDS011;35714;55.708;37.478;2023-01-16T06:05:28;21.33;;;5.85;;
49824;SDS011;35714;55.708;37.478;2023-01-16T06:07:54;22.02;;;6.72;;
49824;SDS011;35714;55.708;37.478;2023-01-16T06:10:24;19.15;;;5.53;;
49824;SDS011;35714;55.708;37.478;2023-01-16T06:12:50;22.73;;;7.60;;
49824;SDS011;35714;55.708;37.478;2023-01-16T06:15:15;19.73;;;5.80;;
49824;SDS011;35714;55.708;37.478;2023-01-16T06:17:41;21.45;;;5.57;;
49824;SDS011;35714;55.708;37.478;2023-01-16T06:20:08;19.95;;;5.50;;
49824;SDS011;35714;55.708;37.478;2023-01-16T06:22:34;18.73;;;5.07;;
49824;SDS011;35714;55.708;37.478;2023-01-16T06:25:00;27.00;;;6.32;;
49824;SDS011;35714;55.708;37.478;2023-01-16T06:27:25;15.32;;;4.78;;
49824;SDS011;35714;55.708;37.478;2023-01-16T06:29:52;10.73;;;3.60;;
49824;SDS011;35714;55.708;37.478;2023-01-16T06:32:17;12.10;;;5.15;;
49824;SDS011;35714;55.708;37.478;2023-01-16T06:34:43;19.65;;;4.97;;
49824;SDS011;35714;55.708;37.478;2023-01-16T06:37:09;19.50;;;5.80;;
49824;SDS011;35714;55.708;37.478;2023-01-16T06:39:36;21.63;;;6.60;;
49824;SDS011;35714;55.708;37.478;2023-01-16T06:42:02;18.92;;;6.28;;
49824;SDS011;35714;55.708;37.478;2023-01-16T06:44:30;16.48;;;5.13;;
49824;SDS011;35714;55.708;37.478;2023-01-16T06:46:57;19.23;;;5.55;;
49824;SDS011;35714;55.708;37.478;2023-01-16T06:49:23;22.05;;;5.25;;
49824;SDS011;35714;55.708;37.478;2023-01-16T06:51:49;22.63;;;5.43;;
49824;SDS011;35714;55.708;37.478;2023-01-16T06:54:14;17.98;;;5.05;;
49824;SDS011;35714;55.708;37.478;2023-01-16T06:56:40;12.25;;;5.28;;
49824;SDS011;35714;55.708;37.478;2023-01-16T06:59:06;16.27;;;5.10;;
49824;SDS011;35714;55.708;37.478;2023-01-16T07:01:31;10.65;;;4.85;;
49824;SDS011;35714;55.708;37.478;2023-01-16T07:03:57;14.25;;;4.95;;
49824;SDS011;35714;55.708;37.478;2023-01-16T07:06:23;12.38;;;4.28;;
49824;SDS011;35714;55.708;37.478;2023-01-16T07:08:49;20.42;;;5.28;;
49824;SDS011;35714;55.708;37.478;2023-01-16T07:11:18;18.10;;;5.60;;
49824;SDS011;35714;55.708;37.478;2023-01-16T07:13:44;13.43;;;4.97;;
49824;SDS011;35714;55.708;37.478;2023-01-16T07:16:13;9.82;;;3.40;;
49824;SDS011;35714;55.708;37.478;2023-01-16T07:18:58;14.93;;;4.13;;
49824;SDS011;35714;55.708;37.478;2023-01-16T07:21:43;16.55;;;4.72;;
49824;SDS011;35714;55.708;37.478;2023-01-16T07:24:31;12.15;;;4.00;;
49824;SDS011;35714;55.708;37.478;2023-01-16T07:27:02;15.00;;;5.47;;
49824;SDS011;35714;55.708;37.478;2023-01-16T07:29:31;12.32;;;4.40;;
49824;SDS011;35714;55.708;37.478;2023-01-16T07:31:59;15.38;;;5.18;;
49824;SDS011;35714;55.708;37.478;2023-01-16T07:34:27;15.65;;;5.60;;
49824;SDS011;35714;55.708;37.478;2023-01-16T07:36:53;18.67;;;5.50;;
49824;SDS011;35714;55.708;37.478;2023-01-16T07:39:18;16.48;;;4.93;;
49824;SDS011;35714;55.708;37.478;2023-01-16T07:41:44;12.57;;;5.30;;
49824;SDS011;35714;55.708;37.478;2023-01-16T07:44:12;22.33;;;6.45;;
49824;SDS011;35714;55.708;37.478;2023-01-16T07:46:37;20.25;;;5.57;;
49824;SDS011;35714;55.708;37.478;2023-01-16T07:49:03;16.88;;;5.47;;
49824;SDS011;35714;55.708;37.478;2023-01-16T07:51:29;16.25;;;4.47;;
49824;SDS011;35714;55.708;37.478;2023-01-16T07:53:54;15.63;;;5.45;;
49824;SDS011;35714;55.708;37.478;2023-01-16T07:56:20;16.15;;;5.88;;
49824;SDS011;35714;55.708;37.478;2023-01-16T07:58:46;18.63;;;5.50;;
49824;SDS011;35714;55.708;37.478;2023-01-16T08:01:14;20.02;;;5.78;;
49824;SDS011;35714;55.708;37.478;2023-01-16T08:03:40;14.93;;;5.03;;
49824;SDS011;35714;55.708;37.478;2023-01-16T08:06:06;14.57;;;5.68;;
49824;SDS011;35714;55.708;37.478;2023-01-16T08:08:32;37.28;;;7.18;;
49824;SDS011;35714;55.708;37.478;2023-01-16T08:10:58;16.27;;;5.40;;
49824;SDS011;35714;55.708;37.478;2023-01-16T08:13:45;11.60;;;5.18;;
49824;SDS011;35714;55.708;37.478;2023-01-16T08:16:11;15.00;;;6.40;;
49824;SDS011;35714;55.708;37.478;2023-01-16T08:18:37;12.55;;;5.28;;
49824;SDS011;35714;55.708;37.478;2023-01-16T08:21:02;14.75;;;5.28;;
49824;SDS011;35714;55.708;37.478;2023-01-16T08:23:28;19.48;;;5.53;;
49824;SDS011;35714;55.708;37.478;2023-01-16T08:25:54;16.10;;;5.80;;
49824;SDS011;35714;55.708;37.478;2023-01-16T08:28:19;15.60;;;5.28;;
49824;SDS011;35714;55.708;37.478;2023-01-16T08:30:45;22.35;;;6.53;;
49824;SDS011;35714;55.708;37.478;2023-01-16T08:33:11;18.95;;;5.47;;
49824;SDS011;35714;55.708;37.478;2023-01-16T08:35:36;21.83;;;6.93;;
49824;SDS011;35714;55.708;37.478;2023-01-16T08:38:02;18.75;;;5.45;;
49824;SDS011;35714;55.708;37.478;2023-01-16T08:40:28;21.48;;;4.82;;
49824;SDS011;35714;55.708;37.478;2023-01-16T08:42:54;14.57;;;4.18;;
49824;SDS011;35714;55.708;37.478;2023-01-16T08:45:38;11.02;;;4.57;;
49824;SDS011;35714;55.708;37.478;2023-01-16T08:48:23;21.48;;;5.55;;
49824;SDS011;35714;55.708;37.478;2023-01-16T08:51:13;19.92;;;6.15;;
49824;SDS011;35714;55.708;37.478;2023-01-16T08:53:47;14.23;;;5.05;;
49824;SDS011;35714;55.708;37.478;2023-01-16T08:56:14;17.25;;;5.80;;
49824;SDS011;35714;55.708;37.478;2023-01-16T08:58:39;14.50;;;4.25;;
49824;SDS011;35714;55.708;37.478;2023-01-16T09:01:05;15.52;;;4.70;;
49824;SDS011;35714;55.708;37.478;2023-01-16T09:03:31;13.07;;;4.22;;
49824;SDS011;35714;55.708;37.478;2023-01-16T09:05:58;13.63;;;5.43;;
49824;SDS011;35714;55.708;37.478;2023-01-16T09:08:24;18.20;;;4.78;;
49824;SDS011;35714;55.708;37.478;2023-01-16T09:10:50;15.30;;;4.97;;
49824;SDS011;35714;55.708;37.478;2023-01-16T09:13:34;12.25;;;4.00;;
49824;SDS011;35714;55.708;37.478;2023-01-16T09:16:19;7.75;;;3.45;;
49824;SDS011;35714;55.708;37.478;2023-01-16T09:18:47;8.93;;;4.00;;
49824;SDS011;35714;55.708;37.478;2023-01-16T09:21:13;10.80;;;4.43;;
49824;SDS011;35714;55.708;37.478;2023-01-16T09:23:40;11.60;;;4.05;;
49824;SDS011;35714;55.708;37.478;2023-01-16T09:26:06;15.18;;;4.45;;
49824;SDS011;35714;55.708;37.478;2023-01-16T09:28:32;12.65;;;4.97;;
49824;SDS011;35714;55.708;37.478;2023-01-16T09:30:58;14.63;;;4.95;;
49824;SDS011;35714;55.708;37.478;2023-01-16T09:33:24;11.63;;;4.82;;
49824;SDS011;35714;55.708;37.478;2023-01-16T09:35:49;11.23;;;5.13;;
49824;SDS011;35714;55.708;37.478;2023-01-16T09:38:15;13.73;;;4.15;;
49824;SDS011;35714;55.708;37.478;2023-01-16T09:40:45;13.90;;;4.93;;
49824;SDS011;35714;55.708;37.478;2023-01-16T09:46:05;14.07;;;5.05;;
49824;SDS011;35714;55.708;37.478;2023-01-16T09:48:54;12.27;;;3.55;;
49824;SDS011;35714;55.708;37.478;2023-01-16T09:51:38;8.05;;;4.05;;
49824;SDS011;35714;55.708;37.478;2023-01-16T09:54:16;15.45;;;4.38;;
49824;SDS011;35714;55.708;37.478;2023-01-16T09:57:09;14.80;;;5.13;;
49824;SDS011;35714;55.708;37.478;2023-01-16T09:59:58;11.70;;;3.92;;
49824;SDS011;35714;55.708;37.478;2023-01-16T10:02:29;9.23;;;3.78;;
49824;SDS011;35714;55.708;37.478;2023-01-16T10:04:58;13.15;;;5.32;;
49824;SDS011;35714;55.708;37.478;2023-01-16T10:26:54;17.40;;;5.15;;
49824;SDS011;35714;55.708;37.478;2023-01-16T10:34:40;13.95;;;4.93;;
49824;SDS011;35714;55.708;37.478;2023-01-16T10:37:22;12.30;;;5.55;;
49824;SDS011;35714;55.708;37.478;2023-01-16T10:39:49;13.07;;;4.28;;
49824;SDS011;35714;55.708;37.478;2023-01-16T10:42:17;13.15;;;4.15;;
49824;SDS011;35714;55.708;37.478;2023-01-16T10:45:15;11.32;;;4.18;;
49824;SDS011;35714;55.708;37.478;2023-01-16T10:48:03;11.95;;;4.55;;
49824;SDS011;35714;55.708;37.478;2023-01-16T10:50:47;8.68;;;4.00;;
49824;SDS011;35714;55.708;37.478;2023-01-16T10:53:13;13.88;;;3.97;;
49824;SDS011;35714;55.708;37.478;2023-01-16T10:55:41;12.05;;;4.07;;
49824;SDS011;35714;55.708;37.478;2023-01-16T10:58:24;10.32;;;4.00;;
49824;SDS011;35714;55.708;37.478;2023-01-16T11:00:52;13.77;;;5.03;;
49824;SDS011;35714;55.708;37.478;2023-01-16T11:03:32;14.80;;;4.68;;
49824;SDS011;35714;55.708;37.478;2023-01-16T11:06:19;14.45;;;4.47;;
49824;SDS011;35714;55.708;37.478;2023-01-16T11:09:35;9.40;;;3.28;;
49824;SDS011;35714;55.708;37.478;2023-01-16T11:11:42;10.25;;;3.72;;
49824;SDS011;35714;55.708;37.478;2023-01-16T11:14:38;13.13;;;3.67;;
49824;SDS011;35714;55.708;37.478;2023-01-16T11:17:31;13.63;;;4.50;;
49824;SDS011;35714;55.708;37.478;2023-01-16T11:20:21;9.75;;;4.00;;
49824;SDS011;35714;55.708;37.478;2023-01-16T11:23:20;12.00;;;4.35;;
49824;SDS011;35714;55.708;37.478;2023-01-16T11:25:48;10.68;;;4.05;;
49824;SDS011;35714;55.708;37.478;2023-01-16T11:28:49;8.63;;;3.58;;
49824;SDS011;35714;55.708;37.478;2023-01-16T11:31:21;8.77;;;2.65;;
49824;SDS011;35714;55.708;37.478;2023-01-16T11:33:55;7.28;;;3.40;;
49824;SDS011;35714;55.708;37.478;2023-01-16T11:36:27;13.50;;;4.07;;
49824;SDS011;35714;55.708;37.478;2023-01-16T11:39:01;5.85;;;2.83;;
49824;SDS011;35714;55.708;37.478;2023-01-16T11:41:29;9.35;;;4.10;;
49824;SDS011;35714;55.708;37.478;2023-01-16T11:46:58;17.15;;;5.30;;
49824;SDS011;35714;55.708;37.478;2023-01-16T11:49:27;6.65;;;2.92;;
49824;SDS011;35714;55.708;37.478;2023-01-16T11:51:58;12.10;;;4.63;;
49824;SDS011;35714;55.708;37.478;2023-01-16T11:54:28;9.57;;;3.95;;
49824;SDS011;35714;55.708;37.478;2023-01-16T11:57:10;13.52;;;5.35;;
49824;SDS011;35714;55.708;37.478;2023-01-16T11:59:45;11.15;;;4.25;;
49824;SDS011;35714;55.708;37.478;2023-01-16T12:05:08;12.20;;;3.67;;
49824;SDS011;35714;55.708;37.478;2023-01-16T12:13:15;11.88;;;5.55;;
49824;SDS011;35714;55.708;37.478;2023-01-16T12:21:37;7.55;;;3.47;;
49824;SDS011;35714;55.708;37.478;2023-01-16T12:32:25;15.73;;;3.75;;
49824;SDS011;35714;55.708;37.478;2023-01-16T12:35:06;8.63;;;3.70;;
49824;SDS011;35714;55.708;37.478;2023-01-16T12:37:59;9.23;;;3.22;;
49824;SDS011;35714;55.708;37.478;2023-01-16T12:43:04;10.95;;;4.90;;
49824;SDS011;35714;55.708;37.478;2023-01-16T12:46:02;7.15;;;3.83;;
49824;SDS011;35714;55.708;37.478;2023-01-16T12:48:49;6.18;;;3.50;;
49824;SDS011;35714;55.708;37.478;2023-01-16T12:51:38;16.17;;;5.90;;
49824;SDS011;35714;55.708;37.478;2023-01-16T12:54:38;8.93;;;4.00;;
49824;SDS011;35714;55.708;37.478;2023-01-16T12:59:48;9.00;;;4.38;;
49824;SDS011;35714;55.708;37.478;2023-01-16T13:05:07;8.05;;;3.13;;
49824;SDS011;35714;55.708;37.478;2023-01-16T13:07:44;10.77;;;4.90;;
49824;SDS011;35714;55.708;37.478;2023-01-16T13:10:37;7.28;;;3.50;;
49824;SDS011;35714;55.708;37.478;2023-01-16T13:13:27;14.38;;;4.72;;
49824;SDS011;35714;55.708;37.478;2023-01-16T13:18:44;7.65;;;3.92;;
49824;SDS011;35714;55.708;37.478;2023-01-16T13:21:14;13.55;;;5.47;;
49824;SDS011;35714;55.708;37.478;2023-01-16T13:23:51;10.00;;;4.60;;
49824;SDS011;35714;55.708;37.478;2023-01-16T13:26:21;11.48;;;5.50;;
49824;SDS011;35714;55.708;37.478;2023-01-16T13:29:24;10.15;;;4.53;;
49824;SDS011;35714;55.708;37.478;2023-01-16T13:32:03;15.73;;;5.25;;
49824;SDS011;35714;55.708;37.478;2023-01-16T13:34:42;7.93;;;4.20;;
49824;SDS011;35714;55.708;37.478;2023-01-16T13:37:30;11.00;;;4.75;;
49824;SDS011;35714;55.708;37.478;2023-01-16T13:42:34;11.30;;;4.00;;
49824;SDS011;35714;55.708;37.478;2023-01-16T13:45:15;13.00;;;5.05;;
49824;SDS011;35714;55.708;37.478;2023-01-16T13:48:06;10.52;;;4.07;;
49824;SDS011;35714;55.708;37.478;2023-01-16T13:50:36;16.35;;;4.20;;
49824;SDS011;35714;55.708;37.478;2023-01-16T13:53:04;11.50;;;4.90;;
49824;SDS011;35714;55.708;37.478;2023-01-16T13:55:33;12.48;;;4.35;;
49824;SDS011;35714;55.708;37.478;2023-01-16T13:58:09;14.18;;;5.53;;
49824;SDS011;35714;55.708;37.478;2023-01-16T14:01:01;16.27;;;5.18;;
49824;SDS011;35714;55.708;37.478;2023-01-16T14:03:30;9.68;;;4.07;;
49824;SDS011;35714;55.708;37.478;2023-01-16T14:11:33;10.10;;;4.72;;
49824;SDS011;35714;55.708;37.478;2023-01-16T14:17:13;11.70;;;4.32;;
49824;SDS011;35714;55.708;37.478;2023-01-16T14:19:51;10.07;;;4.35;;
49824;SDS011;35714;55.708;37.478;2023-01-16T14:22:23;14.15;;;4.80;;
49824;SDS011;35714;55.708;37.478;2023-01-16T14:24:55;12.02;;;5.28;;
49824;SDS011;35714;55.708;37.478;2023-01-16T14:27:24;18.77;;;5.57;;
49824;SDS011;35714;55.708;37.478;2023-01-16T14:29:57;15.52;;;5.10;;
49824;SDS011;35714;55.708;37.478;2023-01-16T14:32:26;10.27;;;5.65;;
49824;SDS011;35714;55.708;37.478;2023-01-16T14:37:39;11.73;;;5.60;;
49824;SDS011;35714;55.708;37.478;2023-01-16T14:42:37;14.57;;;6.30;;
49824;SDS011;35714;55.708;37.478;2023-01-16T14:45:32;13.02;;;5.10;;
49824;SDS011;35714;55.708;37.478;2023-01-16T14:54:10;11.23;;;5.18;;
49824;SDS011;35714;55.708;37.478;2023-01-16T14:57:14;12.93;;;5.30;;
49824;SDS011;35714;55.708;37.478;2023-01-16T14:59:45;16.85;;;5.95;;
49824;SDS011;35714;55.708;37.478;2023-01-16T15:02:24;14.60;;;6.18;;
49824;SDS011;35714;55.708;37.478;2023-01-16T15:05:01;15.40;;;5.57;;
49824;SDS011;35714;55.708;37.478;2023-01-16T15:16:18;16.27;;;5.15;;
49824;SDS011;35714;55.708;37.478;2023-01-16T15:19:18;12.35;;;4.35;;
49824;SDS011;35714;55.708;37.478;2023-01-16T15:22:35;13.68;;;4.63;;
49824;SDS011;35714;55.708;37.478;2023-01-16T15:27:46;12.13;;;5.57;;
49824;SDS011;35714;55.708;37.478;2023-01-16T15:30:19;19.70;;;7.05;;
49824;SDS011;35714;55.708;37.478;2023-01-16T15:32:56;16.38;;;6.53;;
49824;SDS011;35714;55.708;37.478;2023-01-16T15:35:43;15.32;;;7.00;;
49824;SDS011;35714;55.708;37.478;2023-01-16T15:38:11;14.25;;;6.07;;
49824;SDS011;35714;55.708;37.478;2023-01-16T15:40:37;19.60;;;6.80;;
49824;SDS011;35714;55.708;37.478;2023-01-16T15:43:03;20.75;;;7.53;;
49824;SDS011;35714;55.708;37.478;2023-01-16T15:46:25;12.18;;;4.65;;
49824;SDS011;35714;55.708;37.478;2023-01-16T15:49:18;15.98;;;6.93;;
49824;SDS011;35714;55.708;37.478;2023-01-16T15:51:55;20.52;;;7.03;;
49824;SDS011;35714;55.708;37.478;2023-01-16T15:54:23;20.00;;;6.90;;
49824;SDS011;35714;55.708;37.478;2023-01-16T15:56:50;19.42;;;7.93;;
49824;SDS011;35714;55.708;37.478;2023-01-16T15:59:26;11.10;;;4.95;;
49824;SDS011;35714;55.708;37.478;2023-01-16T16:04:54;17.52;;;7.07;;
49824;SDS011;35714;55.708;37.478;2023-01-16T16:07:23;14.98;;;6.78;;
49824;SDS011;35714;55.708;37.478;2023-01-16T16:09:53;13.75;;;6.00;;
49824;SDS011;35714;55.708;37.478;2023-01-16T16:12:21;20.42;;;6.88;;
49824;SDS011;35714;55.708;37.478;2023-01-16T16:14:48;21.17;;;7.78;;
49824;SDS011;35714;55.708;37.478;2023-01-16T16:17:58;13.20;;;5.80;;
49824;SDS011;35714;55.708;37.478;2023-01-16T16:20:30;19.67;;;8.30;;
49824;SDS011;35714;55.708;37.478;2023-01-16T16:23:01;12.75;;;6.45;;
49824;SDS011;35714;55.708;37.478;2023-01-16T16:28:02;25.98;;;7.15;;
49824;SDS011;35714;55.708;37.478;2023-01-16T16:30:30;21.05;;;7.90;;
49824;SDS011;35714;55.708;37.478;2023-01-16T16:32:56;22.08;;;8.32;;
49824;SDS011;35714;55.708;37.478;2023-01-16T16:35:31;18.00;;;7.88;;
49824;SDS011;35714;55.708;37.478;2023-01-16T16:37:59;20.58;;;7.93;;
49824;SDS011;35714;55.708;37.478;2023-01-16T16:40:26;16.83;;;7.43;;
49824;SDS011;35714;55.708;37.478;2023-01-16T16:42:53;17.60;;;6.15;;
49824;SDS011;35714;55.708;37.478;2023-01-16T16:45:23;19.52;;;7.55;;
49824;SDS011;35714;55.708;37.478;2023-01-16T16:51:28;14.73;;;5.70;;
49824;SDS011;35714;55.708;37.478;2023-01-16T16:53:51;20.25;;;7.25;;
49824;SDS011;35714;55.708;37.478;2023-01-16T16:56:20;25.85;;;8.45;;
49824;SDS011;35714;55.708;37.478;2023-01-16T16:58:49;21.52;;;7.45;;
49824;SDS011;35714;55.708;37.478;2023-01-16T17:01:16;20.67;;;7.40;;
49824;SDS011;35714;55.708;37.478;2023-01-16T17:03:45;20.48;;;7.05;;
49824;SDS011;35714;55.708;37.478;2023-01-16T17:06:15;19.40;;;7.60;;
49824;SDS011;35714;55.708;37.478;2023-01-16T17:08:44;17.25;;;7.38;;
49824;SDS011;35714;55.708;37.478;2023-01-16T17:11:10;12.63;;;6.35;;
49824;SDS011;35714;55.708;37.478;2023-01-16T17:13:37;20.17;;;7.05;;
49824;SDS011;35714;55.708;37.478;2023-01-16T17:16:03;15.18;;;7.03;;
49824;SDS011;35714;55.708;37.478;2023-01-16T17:18:31;17.48;;;7.72;;
49824;SDS011;35714;55.708;37.478;2023-01-16T17:20:57;23.92;;;8.63;;
49824;SDS011;35714;55.708;37.478;2023-01-16T17:23:23;17.77;;;7.07;;
49824;SDS011;35714;55.708;37.478;2023-01-16T17:25:51;28.35;;;7.88;;
49824;SDS011;35714;55.708;37.478;2023-01-16T17:28:17;25.20;;;8.50;;
49824;SDS011;35714;55.708;37.478;2023-01-16T17:30:43;16.85;;;6.30;;
49824;SDS011;35714;55.708;37.478;2023-01-16T17:33:13;18.48;;;8.15;;
49824;SDS011;35714;55.708;37.478;2023-01-16T17:35:41;16.33;;;6.60;;
49824;SDS011;35714;55.708;37.478;2023-01-16T17:38:33;17.20;;;5.68;;